createdAt,value
2023-03-22T00:00:00.460Z,95941.84
2023-03-22T00:03:02.882Z,95934.88
2023-03-22T00:06:06.761Z,95943.19
2023-03-22T00:09:08.569Z,95951.38
2023-03-22T00:12:11.098Z,95945.34
2023-03-22T00:15:12.657Z,95945.19
2023-03-22T00:18:14.518Z,95945.19
2023-03-22T00:21:17.540Z,95945.06
2023-03-22T00:24:21.409Z,95940.56
2023-03-22T00:27:23.039Z,95944.38
2023-03-22T00:30:24.698Z,95959.06
2023-03-22T00:33:28.657Z,95957.38
2023-03-22T00:36:31.381Z,95964.41
2023-03-22T00:39:33.039Z,95965.75
2023-03-22T00:42:41.473Z,95955.06
2023-03-22T00:45:43.295Z,95953.78
2023-03-22T00:48:45.727Z,95948.06
2023-03-22T00:51:47.395Z,95957.28
2023-03-22T00:54:49.020Z,95957.09
2023-03-22T00:57:50.779Z,95949.28
2023-03-22T01:00:53.198Z,95947.28
2023-03-22T01:03:55.268Z,95937.59
2023-03-22T01:07:02.347Z,95935.97
2023-03-22T01:10:06.166Z,95939.63
2023-03-22T01:13:09.057Z,95941.28
2023-03-22T01:16:12.168Z,95949.09
2023-03-22T01:19:14.011Z,95947.44
2023-03-22T01:22:15.757Z,95948.94
2023-03-22T01:25:17.907Z,95954.13
2023-03-22T01:28:19.558Z,95940.78
2023-03-22T01:31:21.201Z,95935.31
2023-03-22T01:34:22.983Z,95934.13
2023-03-22T01:37:27.667Z,95930.31
2023-03-22T01:40:29.404Z,95924.81
2023-03-22T01:43:31.952Z,95932.31
2023-03-22T01:46:34.044Z,95925.31
2023-03-22T01:49:39.491Z,95917.47
2023-03-22T01:52:43.423Z,95916.66
2023-03-22T01:55:57.890Z,95908.94
2023-03-22T01:59:06.554Z,95917.78
2023-03-22T02:02:30.967Z,95911.97
2023-03-22T02:05:45.413Z,95913.09
2023-03-22T02:08:49.812Z,95906.91
2023-03-22T02:12:00.242Z,95920.06
2023-03-22T02:15:37.582Z,95920.53
2023-03-22T02:19:29.240Z,95912.88
2023-03-22T02:22:50.079Z,95900.84
2023-03-22T02:26:10.788Z,95893.03
2023-03-22T02:29:19.261Z,95894.00
2023-03-22T02:32:35.981Z,95903.16
2023-03-22T02:36:11.866Z,95900.63
2023-03-22T02:39:38.242Z,95899.97
2023-03-22T02:42:58.802Z,95898.31
2023-03-22T02:46:08.668Z,95891.94
2023-03-22T02:49:29.341Z,95895.09
2023-03-22T02:52:51.573Z,95891.78
2023-03-22T02:56:08.343Z,95887.75
2023-03-22T02:59:13.255Z,95893.22
2023-03-22T03:02:19.694Z,95893.72
2023-03-22T03:05:23.910Z,95884.75
2023-03-22T03:08:29.362Z,95887.69
2023-03-22T03:11:33.266Z,95893.38
2023-03-22T03:14:37.998Z,95899.00
2023-03-22T03:17:52.508Z,95893.16
2023-03-22T03:21:02.734Z,95890.94
2023-03-22T03:24:23.183Z,95890.75
2023-03-22T03:27:51.405Z,95895.03
2023-03-22T03:31:07.860Z,95893.09
2023-03-22T03:34:10.094Z,95897.38
2023-03-22T03:37:17.809Z,95891.84
2023-03-22T03:40:32.969Z,95894.44
2023-03-22T03:43:35.818Z,95901.50
2023-03-22T03:46:39.184Z,95901.13
2023-03-22T03:49:44.091Z,95908.06
2023-03-22T03:52:47.212Z,95912.31
2023-03-22T03:55:49.387Z,95919.09
2023-03-22T03:58:52.857Z,95915.50
2023-03-22T04:01:54.673Z,95919.59
2023-03-22T04:05:01.018Z,95911.25
2023-03-22T04:08:02.646Z,95905.66
2023-03-22T04:11:04.919Z,95909.78
2023-03-22T04:14:09.072Z,95909.53
2023-03-22T04:17:13.577Z,95909.16
2023-03-22T04:20:16.694Z,95909.75
2023-03-22T04:23:23.140Z,95901.38
2023-03-22T04:26:26.926Z,95895.69
2023-03-22T04:30:01.420Z,95898.94
2023-03-22T04:33:23.278Z,95897.72
2023-03-22T04:36:45.211Z,95896.63
2023-03-22T04:39:53.968Z,95898.88
2023-03-22T04:43:24.185Z,95897.63
2023-03-22T04:46:35.684Z,95894.59
2023-03-22T04:49:52.054Z,95903.16
2023-03-22T04:52:58.681Z,95899.22
2023-03-22T04:56:06.591Z,95897.72
2023-03-22T04:59:10.874Z,95901.09
2023-03-22T05:02:16.055Z,95902.22
2023-03-22T05:05:24.721Z,95907.84
2023-03-22T05:08:29.336Z,95899.19
2023-03-22T05:11:31.569Z,95907.16
2023-03-22T05:14:47.225Z,95911.94
2023-03-22T05:17:54.154Z,95914.84
2023-03-22T05:20:57.578Z,95909.16
2023-03-22T05:24:05.746Z,95913.03
2023-03-22T05:27:10.894Z,95914.31
2023-03-22T05:30:15.546Z,95913.75
2023-03-22T05:33:37.279Z,95908.63
2023-03-22T05:36:44.437Z,95915.16
2023-03-22T05:40:20.087Z,95912.81
2023-03-22T05:43:23.989Z,95919.22
2023-03-22T05:46:30.401Z,95913.22
2023-03-22T05:49:56.419Z,95922.31
2023-03-22T05:53:03.101Z,95926.91
2023-03-22T05:56:28.031Z,95920.50
2023-03-22T05:59:41.888Z,95913.38
2023-03-22T06:02:57.586Z,95921.19
2023-03-22T06:06:06.790Z,95927.19
2023-03-22T06:09:18.400Z,95915.47
2023-03-22T06:12:28.831Z,95916.97
2023-03-22T06:15:45.379Z,95914.19
2023-03-22T06:18:55.990Z,95912.13
2023-03-22T06:22:00.750Z,95912.78
2023-03-22T06:25:11.322Z,95916.00
2023-03-22T06:28:21.081Z,95920.03
2023-03-22T06:31:26.308Z,95921.44
2023-03-22T06:34:35.087Z,95925.47
2023-03-22T06:37:38.628Z,95920.72
2023-03-22T06:40:43.561Z,95927.13
2023-03-22T06:43:48.882Z,95916.78
2023-03-22T06:47:18.930Z,95920.66
2023-03-22T06:50:47.696Z,95932.25
2023-03-22T06:54:06.053Z,95929.00
2023-03-22T06:57:12.406Z,95932.91
2023-03-22T07:00:16.931Z,95919.88
2023-03-22T07:03:22.013Z,95917.47
2023-03-22T07:06:33.013Z,95927.22
2023-03-22T07:09:44.204Z,95937.13
2023-03-22T07:12:51.126Z,95934.56
2023-03-22T07:16:04.172Z,95933.69
2023-03-22T07:19:12.186Z,95926.47
2023-03-22T07:22:19.175Z,95929.09
2023-03-22T07:25:24.187Z,95917.38
2023-03-22T07:28:39.457Z,95912.69
2023-03-22T07:31:53.891Z,95914.97
2023-03-22T07:35:26.942Z,95918.78
2023-03-22T07:38:31.603Z,95916.41
2023-03-22T07:41:34.567Z,95916.84
2023-03-22T07:45:11.426Z,95915.19
2023-03-22T07:48:22.777Z,95913.78
2023-03-22T07:51:43.727Z,95917.41
2023-03-22T07:54:45.690Z,95919.47
2023-03-22T07:57:49.890Z,95917.06
2023-03-22T08:00:52.631Z,95915.44
2023-03-22T08:04:24.570Z,95906.00
2023-03-22T08:07:54.718Z,95906.19
2023-03-22T08:10:57.894Z,95906.06
2023-03-22T08:14:04.509Z,95904.75
2023-03-22T08:17:11.716Z,95901.81
2023-03-22T08:20:14.684Z,95912.34
2023-03-22T08:23:42.034Z,95912.69
2023-03-22T08:26:49.753Z,95909.50
2023-03-22T08:30:01.052Z,95905.69
2023-03-22T08:33:11.292Z,95898.34
2023-03-22T08:36:24.822Z,95900.88
2023-03-22T08:39:38.678Z,95900.03
2023-03-22T08:42:56.294Z,95899.66
2023-03-22T08:46:00.246Z,95906.84
2023-03-22T08:49:10.346Z,95906.66
2023-03-22T08:52:34.660Z,95907.78
2023-03-22T08:55:48.317Z,95899.59
2023-03-22T08:59:20.806Z,95889.69
2023-03-22T09:02:47.945Z,95887.81
2023-03-22T09:05:51.647Z,95884.41
2023-03-22T09:08:54.613Z,95885.72
2023-03-22T09:11:59.226Z,95878.66
2023-03-22T09:15:03.275Z,95879.91
2023-03-22T09:18:14.826Z,95876.19
2023-03-22T09:21:18.237Z,95866.91
2023-03-22T09:24:41.632Z,95855.81
2023-03-22T09:27:52.571Z,95859.56
2023-03-22T09:31:01.696Z,95854.59
2023-03-22T09:34:09.689Z,95846.78
2023-03-22T09:37:16.007Z,95843.09
2023-03-22T09:40:34.342Z,95847.66
2023-03-22T09:43:52.273Z,95851.38
2023-03-22T09:46:56.827Z,95843.72
2023-03-22T09:50:07.515Z,95842.75
2023-03-22T09:53:13.763Z,95838.63
2023-03-22T09:56:26.785Z,95839.84
2023-03-22T09:59:54.075Z,95833.78
2023-03-22T10:03:25.585Z,95828.97
2023-03-22T10:06:29.573Z,95835.06
2023-03-22T10:09:34.353Z,95839.94
2023-03-22T10:12:43.260Z,95846.03
2023-03-22T10:15:54.229Z,95833.13
2023-03-22T10:19:22.231Z,95831.97
2023-03-22T10:22:30.790Z,95827.13
2023-03-22T10:25:38.898Z,95836.72
2023-03-22T10:28:44.704Z,95838.81
2023-03-22T10:31:46.894Z,95831.00
2023-03-22T10:34:49.396Z,95820.69
2023-03-22T10:37:52.982Z,95820.09
2023-03-22T10:40:58.128Z,95817.69
2023-03-22T10:44:02.640Z,95822.19
2023-03-22T10:47:08.617Z,95816.84
2023-03-22T10:50:44.576Z,95822.88
2023-03-22T10:53:51.092Z,95804.31
2023-03-22T10:56:52.782Z,95813.25
2023-03-22T10:59:58.242Z,95810.19
2023-03-22T11:03:01.819Z,95802.59
2023-03-22T11:06:06.678Z,95797.84
2023-03-22T11:09:23.644Z,95801.56
2023-03-22T11:12:26.888Z,95789.16
2023-03-22T11:15:31.410Z,95776.94
2023-03-22T11:18:35.256Z,95778.25
2023-03-22T11:21:37.060Z,95773.94
2023-03-22T11:24:39.288Z,95767.34
2023-03-22T11:28:16.763Z,95760.31
2023-03-22T11:31:21.715Z,95752.72
2023-03-22T11:34:27.591Z,95756.06
2023-03-22T11:37:29.683Z,95743.00
2023-03-22T11:40:34.965Z,95747.22
2023-03-22T11:43:46.354Z,95737.69
2023-03-22T11:46:55.898Z,95735.41
2023-03-22T11:49:57.585Z,95733.56
2023-03-22T11:53:07.097Z,95735.22
2023-03-22T11:56:12.442Z,95729.63
2023-03-22T11:59:40.212Z,95721.53
2023-03-22T12:02:51.724Z,95716.97
2023-03-22T12:05:55.029Z,95706.00
2023-03-22T12:09:01.884Z,95697.47
2023-03-22T12:12:06.382Z,95704.31
2023-03-22T12:15:11.056Z,95692.47
2023-03-22T12:18:19.821Z,95697.66
2023-03-22T12:21:21.455Z,95698.88
2023-03-22T12:24:32.273Z,95692.00
2023-03-22T12:27:41.433Z,95681.22
2023-03-22T12:30:47.547Z,95684.28
2023-03-22T12:33:53.791Z,95687.78
2023-03-22T12:36:57.287Z,95674.09
2023-03-22T12:40:05.602Z,95678.63
2023-03-22T12:43:32.161Z,95685.66
2023-03-22T12:46:40.074Z,95677.97
2023-03-22T12:50:02.829Z,95676.50
2023-03-22T12:53:05.322Z,95665.06
2023-03-22T12:56:07.952Z,95665.84
2023-03-22T12:59:30.808Z,95667.91
2023-03-22T13:02:35.054Z,95665.00
2023-03-22T13:05:37.645Z,95661.25
2023-03-22T13:09:15.519Z,95658.53
2023-03-22T13:12:18.224Z,95657.50
2023-03-22T13:15:41.797Z,95647.50
2023-03-22T13:18:47.603Z,95651.47
2023-03-22T13:21:50.135Z,95649.00
2023-03-22T13:25:29.159Z,95656.47
2023-03-22T13:28:37.131Z,95636.75
2023-03-22T13:31:45.397Z,95635.69
2023-03-22T13:34:52.578Z,95628.59
2023-03-22T13:38:03.135Z,95627.13
2023-03-22T13:41:13.842Z,95643.97
2023-03-22T13:44:27.428Z,95628.34
2023-03-22T13:47:46.554Z,95632.28
2023-03-22T13:50:49.082Z,95623.50
2023-03-22T13:53:57.188Z,95629.31
2023-03-22T13:57:01.654Z,95629.06
2023-03-22T14:00:20.215Z,95622.81
2023-03-22T14:03:35.811Z,95615.69
2023-03-22T14:07:00.187Z,95611.97
2023-03-22T14:10:12.803Z,95613.13
2023-03-22T14:13:21.123Z,95609.78
2023-03-22T14:16:36.808Z,95615.56
2023-03-22T14:19:41.940Z,95612.38
